Main page
METAR-TAF:

METAR-TAF

Airports :

Rantoul National Aviation Center Airport (Frank Elliott Field)

Rantoul, Illinois, United States

latitude: 40-17-37N, longitude: 088-08-33W, elevation: 738 ft

Current weather observation

The report was made 31 minutes ago, at 12:35 UTC
Calm wind
Temperature 68°F
Humidity 100%
Pressure 30.12 in. Hg
Visibility: 7 miles
Scattered clouds at a height of 100 ft

METAR: KTIP 121235Z AUTO 00000KT 7SM SCT001 20/20 A3012 RMK AO2 T02040201

Time: 08:06 (13:06 UTC)


TAF: missing

Weather observations and forecasts of more than 4000 airports (METAR and TAF reports).

The available stations are represented by yellow and red dots on the map.

Hover mouse over dot to see the name of the station.

Then click to see weather observations and forecasts.

To change the map : click on the green buttons with a black cross to zoom in, on the green button with a dash to zoom out, or on the green arrows for adjacent maps.


METAR-TAF: